createdAt,value
2019-03-02T00:02:15.654Z,63.20
2019-03-02T00:04:49.244Z,62.30
2019-03-02T00:07:18.875Z,61.20
2019-03-02T00:09:49.721Z,61.90
2019-03-02T00:12:21.861Z,62.20
2019-03-02T00:14:54.083Z,61.35
2019-03-02T00:17:24.697Z,63.38
2019-03-02T00:19:55.322Z,60.10
2019-03-02T00:22:25.894Z,61.35
2019-03-02T00:24:59.261Z,60.23
2019-03-02T00:27:31.154Z,60.63
2019-03-02T00:30:01.566Z,60.78
2019-03-02T00:32:32.995Z,59.60
2019-03-02T00:35:03.833Z,60.78
2019-03-02T00:37:35.971Z,60.80
2019-03-02T00:40:06.588Z,59.03
2019-03-02T00:42:37.071Z,59.58
2019-03-02T00:45:10.688Z,57.93
2019-03-02T00:47:40.012Z,57.27
2019-03-02T00:50:10.581Z,55.85
2019-03-02T00:52:41.126Z,56.58
2019-03-02T00:55:11.660Z,57.27
2019-03-02T00:57:42.205Z,57.20
2019-03-02T01:00:15.401Z,57.53
2019-03-02T01:02:46.968Z,55.17
2019-03-02T01:05:17.503Z,54.48
2019-03-02T01:07:48.016Z,56.35
2019-03-02T01:10:22.648Z,54.70
2019-03-02T01:12:53.170Z,56.65
2019-03-02T01:15:23.880Z,55.58
2019-03-02T01:17:54.645Z,54.05
2019-03-02T01:20:28.631Z,52.55
2019-03-02T01:22:58.652Z,52.35
2019-03-02T01:25:29.169Z,52.80
2019-03-02T01:28:00.002Z,53.58
2019-03-02T01:30:30.937Z,53.48
2019-03-02T01:33:08.732Z,52.08
2019-03-02T01:35:39.599Z,52.45
2019-03-02T01:38:12.311Z,53.17
2019-03-02T01:40:43.345Z,50.30
2019-03-02T01:43:14.900Z,44.30
2019-03-02T01:45:45.376Z,34.95
2019-03-02T01:48:15.873Z,38.88
2019-03-02T01:50:47.775Z,36.73
2019-03-02T01:53:18.953Z,47.08
2019-03-02T01:55:49.385Z,42.05
2019-03-02T01:58:20.146Z,42.90
2019-03-02T02:00:50.584Z,40.90
2019-03-02T02:03:21.077Z,37.73
2019-03-02T02:05:51.673Z,43.52
2019-03-02T02:08:22.392Z,41.08
2019-03-02T02:10:53.903Z,39.23
2019-03-02T02:13:28.262Z,38.98
2019-03-02T02:16:01.664Z,36.95
2019-03-02T02:18:33.114Z,36.45
2019-03-02T02:21:03.929Z,39.35
2019-03-02T02:23:34.501Z,38.05
2019-03-02T02:26:07.687Z,38.42
2019-03-02T02:28:37.278Z,36.88
2019-03-02T02:31:08.149Z,34.95
2019-03-02T02:33:43.308Z,35.25
2019-03-02T02:36:14.259Z,36.70
2019-03-02T02:38:43.544Z,35.00
2019-03-02T02:41:21.956Z,35.15
2019-03-02T02:43:46.293Z,35.48
2019-03-02T02:46:16.672Z,36.23
2019-03-02T02:48:47.187Z,35.45
2019-03-02T02:51:17.645Z,33.50
2019-03-02T02:53:48.245Z,34.73
2019-03-02T02:56:19.935Z,32.58
2019-03-02T02:58:55.276Z,33.48
2019-03-02T03:01:23.322Z,33.15
2019-03-02T03:03:54.829Z,32.10
2019-03-02T03:06:28.579Z,32.20
2019-03-02T03:08:58.924Z,32.17
2019-03-02T03:11:29.721Z,31.10
2019-03-02T03:14:00.258Z,31.62
2019-03-02T03:16:32.117Z,30.85
2019-03-02T03:19:02.739Z,30.72
2019-03-02T03:21:33.300Z,30.40
2019-03-02T03:24:05.383Z,30.65
2019-03-02T03:26:36.597Z,30.97
2019-03-02T03:29:09.854Z,29.12
2019-03-02T03:31:39.481Z,28.05
2019-03-02T03:34:09.744Z,28.85
2019-03-02T03:36:46.108Z,28.70
2019-03-02T03:39:16.466Z,28.80
2019-03-02T03:41:47.196Z,28.60
2019-03-02T03:44:44.522Z,28.10
2019-03-02T03:47:17.352Z,29.23
2019-03-02T03:49:47.876Z,28.12
2019-03-02T03:52:18.696Z,28.40
2019-03-02T03:54:49.323Z,28.10
2019-03-02T03:57:21.561Z,27.30
2019-03-02T03:59:53.455Z,26.50
2019-03-02T04:02:26.034Z,27.67
2019-03-02T04:04:56.551Z,27.13
2019-03-02T04:07:27.289Z,25.75
2019-03-02T04:09:57.939Z,26.25
2019-03-02T04:12:29.586Z,25.20
2019-03-02T04:15:01.338Z,24.82
2019-03-02T04:17:34.089Z,25.77
2019-03-02T04:20:12.521Z,27.60
2019-03-02T04:22:44.783Z,26.20
2019-03-02T04:25:17.746Z,25.48
2019-03-02T04:27:53.338Z,22.73
2019-03-02T04:30:17.647Z,22.65
2019-03-02T04:32:48.157Z,21.62
2019-03-02T04:35:19.619Z,25.25
2019-03-02T04:37:50.133Z,22.55
2019-03-02T04:40:27.831Z,22.22
2019-03-02T04:42:58.779Z,22.55
2019-03-02T04:45:29.444Z,20.77
2019-03-02T04:48:03.324Z,22.00
2019-03-02T04:50:32.371Z,20.45
2019-03-02T04:53:02.848Z,22.00
2019-03-02T04:55:33.383Z,21.20
2019-03-02T04:58:03.817Z,20.37
2019-03-02T05:00:34.461Z,20.95
2019-03-02T05:03:05.231Z,20.55
2019-03-02T05:05:35.803Z,20.08
2019-03-02T05:08:06.408Z,20.43
2019-03-02T05:10:37.083Z,21.17
2019-03-02T05:13:09.245Z,20.27
2019-03-02T05:15:39.919Z,20.05
2019-03-02T05:18:10.635Z,19.87
2019-03-02T05:20:42.359Z,20.23
2019-03-02T05:23:12.885Z,19.65
2019-03-02T05:25:44.168Z,19.02
2019-03-02T05:28:14.719Z,19.70
2019-03-02T05:30:48.636Z,17.80
2019-03-02T05:33:19.099Z,18.82
2019-03-02T05:35:50.858Z,19.00
2019-03-02T05:38:22.272Z,19.02
2019-03-02T05:40:53.127Z,19.05
2019-03-02T05:43:26.977Z,17.70
2019-03-02T05:45:55.902Z,18.35
2019-03-02T05:48:27.356Z,17.62
2019-03-02T05:50:57.982Z,18.17
2019-03-02T05:53:30.234Z,18.15
2019-03-02T05:56:00.583Z,17.85
2019-03-02T05:58:30.945Z,17.17
2019-03-02T06:01:00.094Z,17.27
2019-03-02T06:03:30.491Z,17.80
2019-03-02T06:06:00.999Z,17.20
2019-03-02T06:08:32.083Z,17.10
2019-03-02T06:11:03.527Z,16.75
2019-03-02T06:13:33.998Z,17.00
2019-03-02T06:16:04.743Z,16.80
2019-03-02T06:18:35.544Z,17.15
2019-03-02T06:21:07.670Z,16.42
2019-03-02T06:23:39.569Z,15.13
2019-03-02T06:26:10.475Z,15.50
2019-03-02T06:28:41.424Z,15.93
2019-03-02T06:31:15.724Z,19.50
2019-03-02T06:33:45.371Z,14.93
2019-03-02T06:36:15.878Z,15.28
2019-03-02T06:38:46.400Z,16.62
2019-03-02T06:41:17.163Z,14.85
2019-03-02T06:43:47.790Z,16.50
2019-03-02T06:46:20.228Z,18.27
2019-03-02T06:48:51.721Z,21.17
2019-03-02T06:51:22.574Z,22.13
2019-03-02T06:53:54.363Z,17.95
2019-03-02T06:56:25.020Z,20.60
2019-03-02T06:58:56.311Z,27.90
2019-03-02T07:01:38.389Z,70.75
2019-03-02T07:04:10.793Z,54.53
2019-03-02T07:06:46.867Z,59.38
2019-03-02T07:09:16.388Z,49.67
2019-03-02T07:11:47.069Z,58.58
2019-03-02T07:14:17.652Z,55.90
2019-03-02T07:16:48.107Z,56.02
2019-03-02T07:19:36.702Z,55.83
2019-03-02T07:22:06.995Z,57.17
2019-03-02T07:24:38.968Z,60.75
2019-03-02T07:27:09.607Z,65.78
2019-03-02T07:29:40.255Z,61.23
2019-03-02T07:32:10.855Z,54.15
2019-03-02T07:34:43.652Z,55.48
2019-03-02T07:37:12.994Z,52.88
2019-03-02T07:39:43.277Z,60.73
2019-03-02T07:42:13.478Z,56.48
2019-03-02T07:44:43.729Z,57.62
2019-03-02T07:47:14.458Z,53.17
2019-03-02T07:49:46.299Z,57.45
2019-03-02T07:52:18.274Z,57.27
2019-03-02T07:54:57.716Z,56.75
2019-03-02T07:57:20.953Z,58.65
2019-03-02T07:59:51.465Z,58.48
2019-03-02T08:02:21.822Z,59.85
2019-03-02T08:04:52.256Z,59.23
2019-03-02T08:07:25.119Z,58.33
2019-03-02T08:09:58.974Z,60.90
2019-03-02T08:12:27.844Z,57.62
2019-03-02T08:14:58.807Z,57.25
2019-03-02T08:17:29.312Z,56.40
2019-03-02T08:19:59.847Z,55.15
2019-03-02T08:22:30.290Z,56.48
2019-03-02T08:25:00.815Z,62.30
2019-03-02T08:27:34.645Z,56.37
2019-03-02T08:30:03.697Z,56.70
2019-03-02T08:32:34.530Z,53.17
2019-03-02T08:35:05.393Z,51.95
2019-03-02T08:37:36.374Z,53.63
2019-03-02T08:40:11.821Z,47.48
2019-03-02T08:42:42.609Z,43.05
2019-03-02T08:45:14.966Z,40.58
2019-03-02T08:47:46.470Z,39.65
2019-03-02T08:50:17.527Z,37.78
2019-03-02T08:52:48.985Z,36.75
2019-03-02T08:55:19.530Z,38.05
2019-03-02T08:57:49.948Z,39.67
2019-03-02T09:00:22.562Z,44.38
2019-03-02T09:02:55.076Z,38.78
2019-03-02T09:05:42.757Z,40.55
2019-03-02T09:07:56.974Z,37.85
2019-03-02T09:10:27.258Z,33.10
2019-03-02T09:12:58.725Z,32.05
2019-03-02T09:15:30.375Z,33.98
2019-03-02T09:18:00.954Z,31.82
2019-03-02T09:20:32.380Z,31.35
2019-03-02T09:23:06.214Z,31.85
2019-03-02T09:25:36.527Z,30.17
2019-03-02T09:28:07.007Z,28.77
2019-03-02T09:30:37.378Z,28.83
2019-03-02T09:33:08.043Z,27.35
2019-03-02T09:35:38.441Z,26.30
2019-03-02T09:38:09.091Z,25.85
2019-03-02T09:40:39.535Z,23.92
2019-03-02T09:43:12.891Z,24.35
2019-03-02T09:45:44.888Z,23.90
2019-03-02T09:48:14.300Z,22.77
2019-03-02T09:50:44.683Z,22.70
2019-03-02T09:53:14.921Z,22.58
2019-03-02T09:55:46.203Z,26.25
2019-03-02T09:58:16.543Z,29.57
2019-03-02T10:00:46.890Z,30.90
2019-03-02T10:03:17.367Z,37.25
2019-03-02T10:05:49.947Z,32.13
2019-03-02T10:08:19.993Z,30.80
2019-03-02T10:10:50.228Z,28.77
2019-03-02T10:13:20.486Z,33.33
2019-03-02T10:15:51.032Z,31.37
2019-03-02T10:18:21.473Z,31.23
2019-03-02T10:20:51.742Z,30.82
2019-03-02T10:23:22.135Z,31.33
2019-03-02T10:25:52.531Z,30.75
2019-03-02T10:28:22.897Z,28.57
2019-03-02T10:30:54.380Z,29.25
2019-03-02T10:33:24.747Z,30.50
2019-03-02T10:35:55.092Z,26.68
2019-03-02T10:38:25.695Z,27.48
2019-03-02T10:40:56.354Z,27.52
2019-03-02T10:43:26.848Z,27.70
2019-03-02T10:45:57.113Z,27.98
2019-03-02T10:48:27.541Z,24.90
2019-03-02T10:50:59.234Z,25.50
2019-03-02T10:53:29.907Z,24.43
2019-03-02T10:56:00.209Z,24.70
2019-03-02T10:58:34.753Z,25.30
2019-03-02T11:01:07.325Z,23.73
2019-03-02T11:03:38.363Z,24.65
2019-03-02T11:06:16.062Z,22.60
2019-03-02T11:09:05.190Z,23.57
2019-03-02T11:12:08.015Z,23.27
2019-03-02T11:15:04.005Z,22.50
2019-03-02T11:17:55.625Z,23.27
2019-03-02T11:20:38.773Z,23.22
2019-03-02T11:23:43.335Z,21.80
2019-03-02T11:26:44.505Z,23.38
2019-03-02T11:29:22.101Z,24.32
2019-03-02T11:32:16.864Z,22.80
2019-03-02T11:35:03.245Z,22.10
2019-03-02T11:37:40.955Z,22.82
2019-03-02T11:40:39.180Z,21.52
2019-03-02T11:43:20.183Z,21.37
2019-03-02T11:45:58.799Z,21.77
2019-03-02T11:48:59.865Z,22.65
2019-03-02T11:51:38.884Z,22.65
2019-03-02T11:54:47.702Z,24.27
2019-03-02T11:57:53.820Z,24.57
2019-03-02T12:00:37.677Z,23.85
2019-03-02T12:03:28.336Z,27.20
2019-03-02T12:06:12.893Z,24.20
2019-03-02T12:09:07.899Z,22.60
2019-03-02T12:11:49.114Z,24.10
2019-03-02T12:14:34.670Z,30.30
2019-03-02T12:17:13.624Z,23.12
2019-03-02T12:20:14.106Z,21.85
2019-03-02T12:23:02.784Z,21.25
2019-03-02T12:25:57.852Z,21.52
2019-03-02T12:28:46.337Z,23.27
2019-03-02T12:31:38.616Z,20.55
2019-03-02T12:34:17.792Z,20.95
2019-03-02T12:37:13.060Z,20.70
2019-03-02T12:40:03.051Z,21.80
2019-03-02T12:42:49.203Z,19.40
2019-03-02T12:45:33.633Z,19.52
2019-03-02T12:48:21.793Z,18.30
2019-03-02T12:51:11.071Z,19.50
2019-03-02T12:53:56.371Z,18.57
2019-03-02T12:56:45.576Z,19.25
2019-03-02T12:59:36.003Z,21.30
2019-03-02T13:02:22.873Z,23.35
2019-03-02T13:05:13.264Z,24.23
2019-03-02T13:08:17.629Z,23.83
2019-03-02T13:11:07.134Z,25.88
2019-03-02T13:14:11.432Z,25.52
2019-03-02T13:17:03.835Z,26.25
2019-03-02T13:19:58.879Z,27.60
2019-03-02T13:22:57.835Z,29.63
2019-03-02T13:25:47.248Z,26.65
2019-03-02T13:28:54.995Z,29.32
2019-03-02T13:32:02.183Z,26.90
2019-03-02T13:34:54.122Z,32.28
2019-03-02T13:37:37.905Z,28.98
2019-03-02T13:40:19.084Z,29.52
2019-03-02T13:43:04.486Z,23.80
2019-03-02T13:45:51.827Z,26.17
2019-03-02T13:48:43.960Z,23.62
2019-03-02T13:51:38.307Z,27.17
2019-03-02T13:54:33.787Z,30.10
2019-03-02T13:57:23.673Z,26.60
2019-03-02T14:00:15.761Z,26.40
2019-03-02T14:02:56.827Z,28.27
2019-03-02T14:05:45.042Z,28.90
2019-03-02T14:08:44.423Z,32.83
2019-03-02T14:11:36.473Z,30.05
2019-03-02T14:14:24.367Z,26.55
2019-03-02T14:17:11.881Z,27.32
2019-03-02T14:20:05.148Z,29.10
2019-03-02T14:23:06.495Z,27.42
2019-03-02T14:25:46.601Z,27.85
2019-03-02T14:28:39.936Z,28.27
2019-03-02T14:31:20.164Z,27.80
2019-03-02T14:34:12.008Z,28.17
2019-03-02T14:37:14.323Z,28.15
2019-03-02T14:40:05.482Z,29.72
2019-03-02T14:42:47.957Z,31.10
2019-03-02T14:45:46.745Z,30.25
2019-03-02T14:48:33.278Z,31.57
2019-03-02T14:51:34.776Z,27.15
2019-03-02T14:54:12.811Z,26.93
2019-03-02T14:56:53.382Z,25.72
2019-03-02T14:59:40.854Z,27.15
2019-03-02T15:02:36.221Z,27.15
2019-03-02T15:05:34.639Z,28.15
2019-03-02T15:08:11.318Z,29.98
2019-03-02T15:10:51.785Z,29.57
2019-03-02T15:13:46.810Z,26.73
2019-03-02T15:16:36.751Z,28.57
2019-03-02T15:19:56.127Z,30.45
2019-03-02T15:22:45.408Z,28.60
2019-03-02T15:25:37.749Z,28.00
2019-03-02T15:28:14.625Z,27.58
2019-03-02T15:31:12.750Z,25.00
2019-03-02T15:33:56.643Z,25.20
2019-03-02T15:36:47.837Z,26.82
2019-03-02T15:39:44.255Z,23.10
2019-03-02T15:42:33.668Z,13.45
2019-03-02T15:45:22.220Z,7.47
2019-03-02T15:48:11.114Z,9.25
2019-03-02T15:51:06.420Z,10.78
2019-03-02T15:54:07.551Z,11.97
2019-03-02T15:57:03.538Z,12.10
2019-03-02T15:59:42.288Z,12.18
2019-03-02T16:02:34.480Z,13.08
2019-03-02T16:05:24.949Z,13.18
2019-03-02T16:08:18.070Z,11.55
2019-03-02T16:11:06.598Z,11.57
2019-03-02T16:13:59.971Z,12.18
2019-03-02T16:16:51.531Z,12.15
2019-03-02T16:19:36.071Z,12.68
2019-03-02T16:22:16.797Z,11.65
2019-03-02T16:25:04.777Z,11.38
2019-03-02T16:27:52.776Z,11.20
2019-03-02T16:30:39.183Z,10.90
2019-03-02T16:33:34.870Z,12.23
2019-03-02T16:36:36.277Z,12.10
2019-03-02T16:39:39.174Z,11.50
2019-03-02T16:42:36.861Z,11.60
2019-03-02T16:45:25.128Z,10.40
2019-03-02T16:48:08.739Z,11.30
2019-03-02T16:51:10.166Z,10.30
2019-03-02T16:54:02.138Z,10.90
2019-03-02T16:56:50.016Z,10.88
2019-03-02T16:59:45.021Z,9.83
2019-03-02T17:02:23.036Z,10.78
2019-03-02T17:05:15.389Z,10.45
2019-03-02T17:07:54.939Z,10.32
2019-03-02T17:10:59.617Z,10.72
2019-03-02T17:13:48.523Z,10.78
2019-03-02T17:16:49.674Z,9.93
2019-03-02T17:19:33.903Z,10.00
2019-03-02T17:22:12.622Z,10.38
2019-03-02T17:25:04.802Z,9.98
2019-03-02T17:27:44.759Z,9.40
2019-03-02T17:30:35.565Z,9.85
2019-03-02T17:33:16.311Z,9.18
2019-03-02T17:36:06.689Z,10.03
2019-03-02T17:38:54.984Z,10.15
2019-03-02T17:41:40.457Z,9.73
2019-03-02T17:44:32.451Z,9.85
2019-03-02T17:47:31.607Z,8.68
2019-03-02T17:50:12.477Z,9.88
2019-03-02T17:53:10.616Z,10.53
2019-03-02T17:56:00.879Z,8.88
2019-03-02T17:58:53.472Z,9.53
2019-03-02T18:02:00.885Z,9.15
2019-03-02T18:04:52.624Z,8.28
2019-03-02T18:07:33.027Z,8.98
2019-03-02T18:10:23.165Z,9.20
2019-03-02T18:13:02.272Z,8.28
2019-03-02T18:15:53.439Z,8.58
2019-03-02T18:18:23.755Z,8.15
2019-03-02T18:20:56.130Z,9.35
2019-03-02T18:23:26.069Z,8.70
2019-03-02T18:25:56.410Z,8.38
2019-03-02T18:28:27.169Z,8.23
2019-03-02T18:30:57.625Z,8.85
2019-03-02T18:33:47.645Z,8.05
2019-03-02T18:36:19.208Z,8.65
2019-03-02T18:38:50.373Z,9.13
2019-03-02T18:41:20.800Z,8.28
2019-03-02T18:43:53.129Z,8.78
2019-03-02T18:46:23.515Z,7.92
2019-03-02T18:49:14.821Z,7.62
2019-03-02T18:52:01.376Z,8.50
2019-03-02T18:54:31.757Z,8.38
2019-03-02T18:57:02.418Z,8.75
2019-03-02T18:59:32.698Z,7.97
2019-03-02T19:02:05.426Z,8.10
2019-03-02T19:04:37.174Z,8.88
2019-03-02T19:07:10.530Z,10.20
2019-03-02T19:09:40.812Z,9.35
2019-03-02T19:12:11.232Z,9.40
2019-03-02T19:14:42.093Z,8.78
2019-03-02T19:17:12.444Z,8.95
2019-03-02T19:19:42.820Z,9.98
2019-03-02T19:22:13.777Z,10.48
2019-03-02T19:24:44.816Z,9.23
2019-03-02T19:27:15.149Z,8.78
2019-03-02T19:29:45.805Z,10.30
2019-03-02T19:32:17.972Z,9.28
2019-03-02T19:34:48.775Z,10.75
2019-03-02T19:37:19.083Z,8.35
2019-03-02T19:39:50.888Z,8.03
2019-03-02T19:42:23.851Z,9.38
2019-03-02T19:44:56.972Z,8.10
2019-03-02T19:47:31.857Z,11.12
2019-03-02T19:50:11.176Z,8.38
2019-03-02T19:52:42.674Z,7.92
2019-03-02T19:55:13.402Z,7.55
2019-03-02T19:57:43.700Z,7.40
2019-03-02T20:00:19.899Z,9.50
2019-03-02T20:02:50.217Z,7.55
2019-03-02T20:05:20.827Z,7.80
2019-03-02T20:07:51.259Z,8.33
2019-03-02T20:10:21.967Z,7.47
2019-03-02T20:12:55.191Z,9.08
2019-03-02T20:15:25.616Z,8.95
2019-03-02T20:17:55.985Z,7.87
2019-03-02T20:20:26.356Z,9.00
2019-03-02T20:22:56.650Z,9.05
2019-03-02T20:25:29.430Z,7.75
2019-03-02T20:28:01.958Z,8.33
2019-03-02T20:30:34.703Z,8.98
2019-03-02T20:33:05.008Z,8.83
2019-03-02T20:35:35.793Z,8.35
2019-03-02T20:38:08.183Z,10.93
2019-03-02T20:40:42.454Z,9.93
2019-03-02T20:43:13.876Z,7.90
2019-03-02T20:45:44.610Z,7.35
2019-03-02T20:48:14.993Z,9.05
2019-03-02T20:50:45.299Z,9.43
2019-03-02T20:53:16.675Z,8.30
2019-03-02T20:55:47.003Z,21.60
2019-03-02T20:58:17.444Z,20.05
2019-03-02T21:00:47.746Z,12.95
2019-03-02T21:03:19.597Z,14.53
2019-03-02T21:05:50.009Z,11.08
2019-03-02T21:08:20.324Z,14.07
2019-03-02T21:10:50.565Z,11.88
2019-03-02T21:13:20.865Z,15.68
2019-03-02T21:15:51.332Z,13.68
2019-03-02T21:18:21.729Z,20.52
2019-03-02T21:20:52.107Z,19.60
2019-03-02T21:23:22.509Z,26.15
2019-03-02T21:25:53.290Z,34.33
2019-03-02T21:28:23.837Z,34.30
2019-03-02T21:30:54.584Z,35.52
2019-03-02T21:33:25.055Z,36.90
2019-03-02T21:35:55.500Z,37.63
2019-03-02T21:38:26.582Z,45.00
2019-03-02T21:40:57.049Z,56.85
2019-03-02T21:43:27.640Z,59.30
2019-03-02T21:45:58.182Z,62.70
2019-03-02T21:48:28.580Z,67.40
2019-03-02T21:51:01.993Z,70.80
2019-03-02T21:53:32.603Z,68.40
2019-03-02T21:56:02.987Z,75.00
2019-03-02T21:58:33.282Z,75.60
2019-03-02T22:01:03.538Z,95.97
2019-03-02T22:03:34.009Z,108.90
2019-03-02T22:06:04.344Z,83.47
2019-03-02T22:08:35.630Z,84.15
2019-03-02T22:11:08.283Z,74.53
2019-03-02T22:13:38.599Z,79.12
2019-03-02T22:16:08.955Z,78.47
2019-03-02T22:18:39.333Z,73.33
2019-03-02T22:21:09.642Z,78.10
2019-03-02T22:23:41.117Z,73.72
2019-03-02T22:26:11.901Z,72.78
2019-03-02T22:28:42.279Z,73.83
2019-03-02T22:31:12.480Z,72.75
2019-03-02T22:33:42.774Z,85.22
2019-03-02T22:36:12.982Z,87.10
2019-03-02T22:38:43.261Z,92.25
2019-03-02T22:41:13.561Z,86.00
2019-03-02T22:43:43.965Z,116.80
2019-03-02T22:46:14.287Z,114.85
2019-03-02T22:48:45.124Z,104.70
2019-03-02T22:51:15.352Z,115.70
2019-03-02T22:53:45.726Z,103.35
2019-03-02T22:56:15.961Z,102.72
2019-03-02T22:58:45.282Z,105.37
2019-03-02T23:02:08.608Z,110.52
2019-03-02T23:04:39.054Z,117.47
2019-03-02T23:07:09.275Z,113.88
2019-03-02T23:09:39.895Z,113.80
2019-03-02T23:12:10.234Z,114.52
2019-03-02T23:14:40.637Z,113.88
2019-03-02T23:17:10.982Z,116.10
2019-03-02T23:19:41.301Z,109.07
2019-03-02T23:22:11.744Z,108.87
2019-03-02T23:24:42.023Z,109.67
2019-03-02T23:27:12.335Z,110.00
2019-03-02T23:29:43.058Z,110.03
2019-03-02T23:32:23.892Z,93.97
2019-03-02T23:34:54.222Z,96.42
2019-03-02T23:37:24.628Z,100.40
2019-03-02T23:39:54.929Z,94.75
2019-03-02T23:42:25.227Z,94.35
2019-03-02T23:44:55.612Z,96.53
2019-03-02T23:47:26.107Z,91.02
2019-03-02T23:49:56.383Z,89.62
2019-03-02T23:52:26.681Z,92.82
2019-03-02T23:54:57.030Z,95.62
2019-03-02T23:57:27.266Z,97.20
2019-03-02T23:59:57.620Z,87.22
